Armour, South Dakota
Current Conditions -  °F | °C
As of 4:37 AM on Friday 19 Dec 2014 (Local Time) from KMHE Reporting Station
Overcast Overcast  
Wind Chill: 21°   Ceiling: 900
Heat Index: 30°   Visibility: 7mi
Dew Point: 26°   Wind: 12mph
Humidity: 85%   Direction: 170°S
Pressure: 30.12"   Gusts: NA
Location:  43.32°N, 98.35°W
Report Text: KMHE 191037Z AUTO 17010KT 7SM OVC009 M01/M03 A3012 RMK AO2 T10111033 $
Loading
Personal Weather Stations






























Interactive Weather Map New forecast layout! Learn more

10-Day Weather Forecast

Advertisements
Track Severe Weather on mobile